Terminal Aerodrome Forecast
Issued by NWS

Home | Current Version | Previous Version | Graphics & Text | Print | Product List | Glossary On
Versions: 1 2 3 4 5 6 7 8 9 10 11 12 13 14 15 16
000
FTUS45 KGGW 260959 AAA
TAFSDY
TAF AMD
KSDY 260959Z 2610/2706 09004KT P6SM SCT025 BKN060
     FM261200 19005KT 1SM BR SCT003 OVC010
     FM261400 20006KT 2SM BR SCT005 OVC015
     FM262000 27013KT P6SM OVC020
     FM270100 32008KT P6SM BKN035=

USA.gov is the U.S. government's official web portal to all federal, state and local government web resources and services.